Terminal Aerodrome Forecast
Issued by NWS

Home | Current Version | Previous Version | Text Only | Print | Product List | Glossary On
Versions: 1 2 3 4 5 6 7 8 9 10 11 12 13 14 15 16 17 18
000
FTUS41 KCAR 291720
TAFHUL
TAF
KHUL 291720Z 2918/3018 24004KT P6SM BKN060
     FM292200 VRB02KT P6SM BKN060
     FM300700 VRB03KT 2SM BR SCT090
     FM301030 34005KT P6SM FEW250=

USA.gov is the U.S. government's official web portal to all federal, state and local government web resources and services.